sensor_id;sensor_type;location;lat;lon;timestamp;pressure;altitude;pressure_sealevel;temperature;humidity
59493;BME280;45497;43.996;22.876;2023-03-22T00:00:28;100965.13;;;14.22;58.42
59493;BME280;45497;43.996;22.876;2023-03-22T00:02:55;100969.97;;;14.33;58.15
59493;BME280;45497;43.996;22.876;2023-03-22T00:05:21;100967.50;;;14.32;58.01
59493;BME280;45497;43.996;22.876;2023-03-22T00:07:46;100968.69;;;14.29;58.02
59493;BME280;45497;43.996;22.876;2023-03-22T00:10:18;100964.56;;;14.27;58.13
59493;BME280;45497;43.996;22.876;2023-03-22T00:12:44;100965.84;;;14.31;58.19
59493;BME280;45497;43.996;22.876;2023-03-22T00:15:09;100970.34;;;14.30;58.13
59493;BME280;45497;43.996;22.876;2023-03-22T00:17:35;100978.34;;;14.30;58.16
59493;BME280;45497;43.996;22.876;2023-03-22T00:20:04;100977.34;;;14.31;58.28
59493;BME280;45497;43.996;22.876;2023-03-22T00:22:33;100975.88;;;14.29;58.49
59493;BME280;45497;43.996;22.876;2023-03-22T00:24:58;100978.72;;;14.27;58.64
59493;BME280;45497;43.996;22.876;2023-03-22T00:27:23;100984.50;;;14.31;58.81
59493;BME280;45497;43.996;22.876;2023-03-22T00:29:52;100978.34;;;14.30;58.53
59493;BME280;45497;43.996;22.876;2023-03-22T00:32:18;100977.44;;;14.23;58.67
59493;BME280;45497;43.996;22.876;2023-03-22T00:34:43;100969.81;;;14.20;58.78
59493;BME280;45497;43.996;22.876;2023-03-22T00:37:09;100968.22;;;14.26;58.89
59493;BME280;45497;43.996;22.876;2023-03-22T00:39:34;100970.34;;;14.30;58.62
59493;BME280;45497;43.996;22.876;2023-03-22T00:42:00;100970.25;;;14.39;58.55
59493;BME280;45497;43.996;22.876;2023-03-22T00:44:27;100970.47;;;14.44;58.24
59493;BME280;45497;43.996;22.876;2023-03-22T00:46:52;100963.50;;;14.43;58.29
59493;BME280;45497;43.996;22.876;2023-03-22T00:49:18;100968.03;;;14.42;58.50
59493;BME280;45497;43.996;22.876;2023-03-22T00:51:43;100967.72;;;14.52;58.05
59493;BME280;45497;43.996;22.876;2023-03-22T00:54:09;100974.81;;;14.45;58.14
59493;BME280;45497;43.996;22.876;2023-03-22T00:56:34;100978.94;;;14.47;58.43
59493;BME280;45497;43.996;22.876;2023-03-22T00:59:02;100974.22;;;14.49;58.27
59493;BME280;45497;43.996;22.876;2023-03-22T01:01:27;100974.03;;;14.51;58.32
59493;BME280;45497;43.996;22.876;2023-03-22T01:03:53;100974.03;;;14.51;58.40
59493;BME280;45497;43.996;22.876;2023-03-22T01:06:18;100979.00;;;14.54;58.09
59493;BME280;45497;43.996;22.876;2023-03-22T01:08:44;100974.44;;;14.48;57.98
59493;BME280;45497;43.996;22.876;2023-03-22T01:11:09;100986.19;;;14.53;58.10
59493;BME280;45497;43.996;22.876;2023-03-22T01:13:36;100988.84;;;14.53;58.08
59493;BME280;45497;43.996;22.876;2023-03-22T01:16:02;100985.56;;;14.51;58.34
59493;BME280;45497;43.996;22.876;2023-03-22T01:18:28;100973.84;;;14.52;58.10
59493;BME280;45497;43.996;22.876;2023-03-22T01:20:53;100972.22;;;14.51;58.16
59493;BME280;45497;43.996;22.876;2023-03-22T01:23:19;100978.75;;;14.49;58.26
59493;BME280;45497;43.996;22.876;2023-03-22T01:25:44;100981.59;;;14.47;58.43
59493;BME280;45497;43.996;22.876;2023-03-22T01:28:10;100975.19;;;14.42;58.33
59493;BME280;45497;43.996;22.876;2023-03-22T01:30:38;100980.41;;;14.50;58.33
59493;BME280;45497;43.996;22.876;2023-03-22T01:33:05;100975.53;;;14.53;58.11
59493;BME280;45497;43.996;22.876;2023-03-22T01:35:32;100971.63;;;14.56;57.85
59493;BME280;45497;43.996;22.876;2023-03-22T01:37:58;100978.47;;;14.59;57.75
59493;BME280;45497;43.996;22.876;2023-03-22T01:40:25;100964.28;;;14.58;57.83
59493;BME280;45497;43.996;22.876;2023-03-22T01:42:52;100970.94;;;14.62;57.67
59493;BME280;45497;43.996;22.876;2023-03-22T01:45:40;100973.38;;;14.64;57.78
59493;BME280;45497;43.996;22.876;2023-03-22T01:48:27;100968.75;;;14.72;57.39
59493;BME280;45497;43.996;22.876;2023-03-22T01:51:20;100958.66;;;14.68;57.60
59493;BME280;45497;43.996;22.876;2023-03-22T01:53:49;100964.75;;;14.62;57.73
59493;BME280;45497;43.996;22.876;2023-03-22T01:56:18;100965.78;;;14.61;58.05
59493;BME280;45497;43.996;22.876;2023-03-22T01:58:45;100960.16;;;14.56;57.96
59493;BME280;45497;43.996;22.876;2023-03-22T02:01:11;100961.78;;;14.57;58.41
59493;BME280;45497;43.996;22.876;2023-03-22T02:06:07;100960.25;;;14.47;58.70
59493;BME280;45497;43.996;22.876;2023-03-22T02:08:33;100959.88;;;14.50;58.69
59493;BME280;45497;43.996;22.876;2023-03-22T02:11:00;100967.72;;;14.52;58.43
59493;BME280;45497;43.996;22.876;2023-03-22T02:37:19;100962.88;;;14.41;58.94
59493;BME280;45497;43.996;22.876;2023-03-22T02:44:41;100970.16;;;14.68;58.04
59493;BME280;45497;43.996;22.876;2023-03-22T02:47:17;100982.78;;;14.60;58.39
59493;BME280;45497;43.996;22.876;2023-03-22T02:49:55;100976.53;;;14.52;58.83
59493;BME280;45497;43.996;22.876;2023-03-22T02:52:28;100985.56;;;14.51;58.68
59493;BME280;45497;43.996;22.876;2023-03-22T02:55:30;100988.69;;;14.40;58.94
59493;BME280;45497;43.996;22.876;2023-03-22T02:58:09;100998.13;;;14.21;59.60
59493;BME280;45497;43.996;22.876;2023-03-22T03:00:36;100997.13;;;14.22;59.54
59493;BME280;45497;43.996;22.876;2023-03-22T03:03:07;101003.28;;;14.23;59.82
59493;BME280;45497;43.996;22.876;2023-03-22T03:05:41;101003.19;;;14.16;59.97
59493;BME280;45497;43.996;22.876;2023-03-22T03:08:09;100995.50;;;14.06;60.33
59493;BME280;45497;43.996;22.876;2023-03-22T03:10:37;100992.94;;;13.98;60.47
59493;BME280;45497;43.996;22.876;2023-03-22T03:13:03;100995.78;;;13.96;60.37
59493;BME280;45497;43.996;22.876;2023-03-22T03:15:29;101001.69;;;13.92;60.66
59493;BME280;45497;43.996;22.876;2023-03-22T03:18:10;101003.22;;;13.86;61.05
59493;BME280;45497;43.996;22.876;2023-03-22T03:20:57;101008.66;;;13.78;61.53
59493;BME280;45497;43.996;22.876;2023-03-22T03:35:11;101008.28;;;13.96;61.05
59493;BME280;45497;43.996;22.876;2023-03-22T03:37:52;101006.91;;;14.00;60.73
59493;BME280;45497;43.996;22.876;2023-03-22T03:42:52;101010.31;;;13.94;61.37
59493;BME280;45497;43.996;22.876;2023-03-22T03:45:19;101009.28;;;13.95;61.07
59493;BME280;45497;43.996;22.876;2023-03-22T03:47:47;101007.66;;;13.94;61.11
59493;BME280;45497;43.996;22.876;2023-03-22T03:50:19;101003.13;;;13.94;61.26
59493;BME280;45497;43.996;22.876;2023-03-22T03:52:45;101004.22;;;14.00;61.13
59493;BME280;45497;43.996;22.876;2023-03-22T03:55:11;101009.47;;;14.08;60.84
59493;BME280;45497;43.996;22.876;2023-03-22T03:57:36;101006.97;;;14.22;60.46
59493;BME280;45497;43.996;22.876;2023-03-22T04:00:03;101003.34;;;14.29;60.20
59493;BME280;45497;43.996;22.876;2023-03-22T04:02:28;101012.25;;;14.37;60.07
59493;BME280;45497;43.996;22.876;2023-03-22T04:04:54;101007.31;;;14.33;60.04
59493;BME280;45497;43.996;22.876;2023-03-22T04:07:19;101015.13;;;14.35;59.64
59493;BME280;45497;43.996;22.876;2023-03-22T04:09:45;101026.63;;;14.36;59.70
59493;BME280;45497;43.996;22.876;2023-03-22T04:12:10;101026.25;;;14.24;59.81
59493;BME280;45497;43.996;22.876;2023-03-22T04:14:36;101033.28;;;14.10;60.48
59493;BME280;45497;43.996;22.876;2023-03-22T04:17:02;101031.25;;;13.97;60.98
59493;BME280;45497;43.996;22.876;2023-03-22T04:19:27;101034.28;;;13.94;61.26
59493;BME280;45497;43.996;22.876;2023-03-22T04:21:53;101030.06;;;14.00;61.18
59493;BME280;45497;43.996;22.876;2023-03-22T04:24:21;101042.13;;;13.95;61.34
59493;BME280;45497;43.996;22.876;2023-03-22T04:26:47;101037.69;;;13.73;62.01
59493;BME280;45497;43.996;22.876;2023-03-22T04:29:13;101036.69;;;13.36;63.02
59493;BME280;45497;43.996;22.876;2023-03-22T04:31:39;101040.03;;;13.38;62.75
59493;BME280;45497;43.996;22.876;2023-03-22T04:34:05;101042.53;;;13.54;62.45
59493;BME280;45497;43.996;22.876;2023-03-22T04:36:32;101033.63;;;13.62;61.88
59493;BME280;45497;43.996;22.876;2023-03-22T04:39:05;101036.13;;;13.64;61.68
59493;BME280;45497;43.996;22.876;2023-03-22T04:41:32;101045.66;;;13.58;61.43
59493;BME280;45497;43.996;22.876;2023-03-22T04:43:58;101046.13;;;13.62;61.14
59493;BME280;45497;43.996;22.876;2023-03-22T04:46:28;101052.63;;;13.59;61.38
59493;BME280;45497;43.996;22.876;2023-03-22T04:48:54;101057.03;;;13.52;61.47
59493;BME280;45497;43.996;22.876;2023-03-22T04:51:20;101057.34;;;13.34;61.76
59493;BME280;45497;43.996;22.876;2023-03-22T04:53:46;101058.47;;;13.16;62.16
59493;BME280;45497;43.996;22.876;2023-03-22T04:56:12;101062.13;;;13.15;62.16
59493;BME280;45497;43.996;22.876;2023-03-22T04:58:39;101054.28;;;12.99;62.55
59493;BME280;45497;43.996;22.876;2023-03-22T05:01:06;101065.34;;;12.88;62.55
59493;BME280;45497;43.996;22.876;2023-03-22T05:03:32;101066.69;;;12.84;62.86
59493;BME280;45497;43.996;22.876;2023-03-22T05:05:59;101070.16;;;12.61;63.17
59493;BME280;45497;43.996;22.876;2023-03-22T05:08:27;101078.13;;;12.61;62.93
59493;BME280;45497;43.996;22.876;2023-03-22T05:10:53;101081.47;;;12.55;62.69
59493;BME280;45497;43.996;22.876;2023-03-22T05:13:20;101089.16;;;12.50;62.95
59493;BME280;45497;43.996;22.876;2023-03-22T05:15:47;101084.66;;;12.50;62.61
59493;BME280;45497;43.996;22.876;2023-03-22T05:18:14;101079.69;;;12.47;62.54
59493;BME280;45497;43.996;22.876;2023-03-22T05:20:41;101087.81;;;12.54;62.37
59493;BME280;45497;43.996;22.876;2023-03-22T05:23:08;101079.66;;;12.55;62.39
59493;BME280;45497;43.996;22.876;2023-03-22T05:25:35;101088.47;;;12.56;62.18
59493;BME280;45497;43.996;22.876;2023-03-22T05:28:01;101095.31;;;12.50;62.63
59493;BME280;45497;43.996;22.876;2023-03-22T05:30:28;101097.53;;;12.30;63.08
59493;BME280;45497;43.996;22.876;2023-03-22T05:33:02;101097.88;;;12.35;62.92
59493;BME280;45497;43.996;22.876;2023-03-22T05:35:29;101103.53;;;12.24;63.21
59493;BME280;45497;43.996;22.876;2023-03-22T05:37:56;101100.88;;;12.24;63.43
59493;BME280;45497;43.996;22.876;2023-03-22T05:40:22;101098.53;;;12.29;63.55
59493;BME280;45497;43.996;22.876;2023-03-22T05:42:48;101106.13;;;12.40;63.34
59493;BME280;45497;43.996;22.876;2023-03-22T05:45:13;101107.56;;;12.51;62.97
59493;BME280;45497;43.996;22.876;2023-03-22T05:47:39;101114.53;;;12.60;62.75
59493;BME280;45497;43.996;22.876;2023-03-22T05:50:06;101110.56;;;12.56;62.76
59493;BME280;45497;43.996;22.876;2023-03-22T05:52:32;101108.94;;;12.47;62.98
59493;BME280;45497;43.996;22.876;2023-03-22T05:54:58;101107.06;;;12.56;63.01
59493;BME280;45497;43.996;22.876;2023-03-22T05:57:23;101121.19;;;12.56;63.34
59493;BME280;45497;43.996;22.876;2023-03-22T05:59:49;101120.34;;;12.64;63.01
59493;BME280;45497;43.996;22.876;2023-03-22T06:02:20;101124.06;;;12.78;63.14
59493;BME280;45497;43.996;22.876;2023-03-22T06:04:46;101112.38;;;12.87;62.76
59493;BME280;45497;43.996;22.876;2023-03-22T06:07:13;101121.75;;;13.06;62.55
59493;BME280;45497;43.996;22.876;2023-03-22T06:09:38;101122.59;;;13.07;62.44
59493;BME280;45497;43.996;22.876;2023-03-22T06:12:04;101127.09;;;13.29;61.96
59493;BME280;45497;43.996;22.876;2023-03-22T06:14:30;101129.50;;;13.47;61.77
59493;BME280;45497;43.996;22.876;2023-03-22T06:16:55;101141.72;;;13.56;61.65
59493;BME280;45497;43.996;22.876;2023-03-22T06:19:21;101145.81;;;13.67;61.36
59493;BME280;45497;43.996;22.876;2023-03-22T06:21:47;101141.88;;;13.78;61.11
59493;BME280;45497;43.996;22.876;2023-03-22T06:24:12;101138.00;;;13.81;61.37
59493;BME280;45497;43.996;22.876;2023-03-22T06:26:38;101149.91;;;13.93;61.58
59493;BME280;45497;43.996;22.876;2023-03-22T06:29:03;101145.22;;;13.95;61.18
59493;BME280;45497;43.996;22.876;2023-03-22T06:31:29;101140.63;;;13.89;61.68
59493;BME280;45497;43.996;22.876;2023-03-22T06:33:55;101148.25;;;13.92;61.57
59493;BME280;45497;43.996;22.876;2023-03-22T06:36:21;101155.22;;;13.93;61.77
59493;BME280;45497;43.996;22.876;2023-03-22T06:38:46;101159.09;;;14.05;61.45
59493;BME280;45497;43.996;22.876;2023-03-22T06:41:13;101157.09;;;14.07;61.09
59493;BME280;45497;43.996;22.876;2023-03-22T06:43:39;101157.19;;;14.14;61.22
59493;BME280;45497;43.996;22.876;2023-03-22T06:46:04;101164.44;;;14.05;61.38
59493;BME280;45497;43.996;22.876;2023-03-22T06:48:30;101169.66;;;13.99;61.44
59493;BME280;45497;43.996;22.876;2023-03-22T06:50:57;101165.84;;;14.16;61.63
59493;BME280;45497;43.996;22.876;2023-03-22T06:53:23;101160.50;;;14.31;60.94
59493;BME280;45497;43.996;22.876;2023-03-22T06:55:49;101158.28;;;14.34;60.83
59493;BME280;45497;43.996;22.876;2023-03-22T06:58:15;101160.88;;;14.43;60.87
59493;BME280;45497;43.996;22.876;2023-03-22T07:00:41;101159.22;;;14.42;60.59
59493;BME280;45497;43.996;22.876;2023-03-22T07:03:06;101164.09;;;14.38;61.03
59493;BME280;45497;43.996;22.876;2023-03-22T07:05:32;101166.50;;;14.48;60.45
59493;BME280;45497;43.996;22.876;2023-03-22T07:07:57;101159.78;;;14.52;60.35
59493;BME280;45497;43.996;22.876;2023-03-22T07:10:23;101176.53;;;14.46;60.46
59493;BME280;45497;43.996;22.876;2023-03-22T07:12:48;101171.84;;;14.48;60.75
59493;BME280;45497;43.996;22.876;2023-03-22T07:15:14;101177.97;;;14.78;59.99
59493;BME280;45497;43.996;22.876;2023-03-22T07:17:41;101180.41;;;14.73;59.98
59493;BME280;45497;43.996;22.876;2023-03-22T07:20:07;101179.56;;;14.72;59.86
59493;BME280;45497;43.996;22.876;2023-03-22T07:22:33;101175.25;;;14.71;59.76
59493;BME280;45497;43.996;22.876;2023-03-22T07:24:59;101180.66;;;14.78;59.70
59493;BME280;45497;43.996;22.876;2023-03-22T07:27:24;101179.28;;;14.82;59.63
59493;BME280;45497;43.996;22.876;2023-03-22T07:29:50;101170.69;;;14.87;59.51
59493;BME280;45497;43.996;22.876;2023-03-22T07:32:16;101179.34;;;15.04;59.22
59493;BME280;45497;43.996;22.876;2023-03-22T07:34:41;101177.47;;;15.04;59.18
59493;BME280;45497;43.996;22.876;2023-03-22T07:37:07;101184.97;;;15.31;58.93
59493;BME280;45497;43.996;22.876;2023-03-22T07:39:33;101189.66;;;15.50;58.43
59493;BME280;45497;43.996;22.876;2023-03-22T07:41:58;101194.69;;;15.17;58.91
59493;BME280;45497;43.996;22.876;2023-03-22T07:44:24;101196.16;;;15.04;59.15
59493;BME280;45497;43.996;22.876;2023-03-22T07:46:50;101196.34;;;15.03;59.23
59493;BME280;45497;43.996;22.876;2023-03-22T07:49:17;101184.63;;;15.19;58.97
59493;BME280;45497;43.996;22.876;2023-03-22T07:51:43;101184.31;;;15.50;58.33
59493;BME280;45497;43.996;22.876;2023-03-22T07:54:08;101183.44;;;15.64;57.75
59493;BME280;45497;43.996;22.876;2023-03-22T07:56:34;101192.84;;;15.39;58.39
59493;BME280;45497;43.996;22.876;2023-03-22T07:59:00;101187.84;;;15.51;58.21
59493;BME280;45497;43.996;22.876;2023-03-22T08:01:25;101190.69;;;15.92;58.18
59493;BME280;45497;43.996;22.876;2023-03-22T08:03:51;101200.78;;;15.97;57.26
59493;BME280;45497;43.996;22.876;2023-03-22T08:06:18;101199.97;;;15.96;57.14
59493;BME280;45497;43.996;22.876;2023-03-22T08:08:44;101203.34;;;16.05;57.15
59493;BME280;45497;43.996;22.876;2023-03-22T08:11:10;101201.19;;;15.94;56.67
59493;BME280;45497;43.996;22.876;2023-03-22T08:13:37;101202.75;;;15.81;56.92
59493;BME280;45497;43.996;22.876;2023-03-22T08:16:02;101204.88;;;15.71;57.06
59493;BME280;45497;43.996;22.876;2023-03-22T08:18:28;101210.66;;;15.96;57.04
59493;BME280;45497;43.996;22.876;2023-03-22T08:20:55;101204.16;;;16.34;56.29
59493;BME280;45497;43.996;22.876;2023-03-22T08:23:22;101211.69;;;16.52;55.53
59493;BME280;45497;43.996;22.876;2023-03-22T08:25:47;101209.19;;;16.50;55.62
59493;BME280;45497;43.996;22.876;2023-03-22T08:28:13;101204.53;;;16.31;55.63
59493;BME280;45497;43.996;22.876;2023-03-22T08:30:41;101210.31;;;16.34;55.42
59493;BME280;45497;43.996;22.876;2023-03-22T08:33:06;101212.94;;;16.21;55.63
59493;BME280;45497;43.996;22.876;2023-03-22T08:35:32;101206.59;;;16.29;55.32
59493;BME280;45497;43.996;22.876;2023-03-22T08:37:57;101208.34;;;16.15;55.32
59493;BME280;45497;43.996;22.876;2023-03-22T08:40:23;101214.13;;;16.18;55.27
59493;BME280;45497;43.996;22.876;2023-03-22T08:42:49;101207.56;;;16.21;55.24
59493;BME280;45497;43.996;22.876;2023-03-22T08:45:15;101207.09;;;16.46;54.88
59493;BME280;45497;43.996;22.876;2023-03-22T08:47:40;101204.22;;;16.47;54.68
59493;BME280;45497;43.996;22.876;2023-03-22T08:50:07;101204.13;;;16.62;54.54
59493;BME280;45497;43.996;22.876;2023-03-22T08:52:33;101208.19;;;16.58;54.27
59493;BME280;45497;43.996;22.876;2023-03-22T08:54:58;101208.91;;;16.73;54.12
59493;BME280;45497;43.996;22.876;2023-03-22T08:57:24;101211.59;;;16.73;54.00
59493;BME280;45497;43.996;22.876;2023-03-22T08:59:54;101208.00;;;16.59;54.19
59493;BME280;45497;43.996;22.876;2023-03-22T09:02:22;101205.91;;;16.48;54.00
59493;BME280;45497;43.996;22.876;2023-03-22T09:04:48;101205.28;;;16.53;54.02
59493;BME280;45497;43.996;22.876;2023-03-22T09:07:13;101216.56;;;16.41;53.94
59493;BME280;45497;43.996;22.876;2023-03-22T09:09:39;101213.50;;;16.44;53.97
59493;BME280;45497;43.996;22.876;2023-03-22T09:12:04;101217.47;;;16.55;53.91
59493;BME280;45497;43.996;22.876;2023-03-22T09:14:30;101219.84;;;16.43;54.22
59493;BME280;45497;43.996;22.876;2023-03-22T09:16:56;101210.00;;;16.44;54.13
59493;BME280;45497;43.996;22.876;2023-03-22T09:19:21;101225.75;;;16.32;54.51
59493;BME280;45497;43.996;22.876;2023-03-22T09:21:47;101217.22;;;16.15;54.70
59493;BME280;45497;43.996;22.876;2023-03-22T09:24:12;101214.91;;;16.12;54.92
59493;BME280;45497;43.996;22.876;2023-03-22T09:26:38;101211.31;;;16.27;54.89
59493;BME280;45497;43.996;22.876;2023-03-22T09:29:03;101209.00;;;16.52;54.50
59493;BME280;45497;43.996;22.876;2023-03-22T09:31:29;101203.66;;;16.52;54.29
59493;BME280;45497;43.996;22.876;2023-03-22T09:33:54;101200.41;;;16.63;54.18
59493;BME280;45497;43.996;22.876;2023-03-22T09:36:20;101205.03;;;16.82;53.97
59493;BME280;45497;43.996;22.876;2023-03-22T09:38:46;101208.09;;;16.79;53.77
59493;BME280;45497;43.996;22.876;2023-03-22T09:41:34;101206.47;;;16.78;53.90
59493;BME280;45497;43.996;22.876;2023-03-22T09:44:04;101210.78;;;16.79;53.93
59493;BME280;45497;43.996;22.876;2023-03-22T09:46:34;101206.66;;;16.77;54.08
59493;BME280;45497;43.996;22.876;2023-03-22T09:49:04;101213.03;;;16.76;54.13
59493;BME280;45497;43.996;22.876;2023-03-22T09:51:40;101206.03;;;16.75;54.11
59493;BME280;45497;43.996;22.876;2023-03-22T09:54:15;101200.53;;;16.83;53.98
59493;BME280;45497;43.996;22.876;2023-03-22T09:56:54;101195.84;;;16.92;53.95
59493;BME280;45497;43.996;22.876;2023-03-22T10:00:02;101194.81;;;16.99;53.56
59493;BME280;45497;43.996;22.876;2023-03-22T10:10:41;101202.19;;;17.52;52.90
59493;BME280;45497;43.996;22.876;2023-03-22T10:13:11;101203.03;;;17.60;52.49
59493;BME280;45497;43.996;22.876;2023-03-22T10:15:43;101193.53;;;17.57;52.33
59493;BME280;45497;43.996;22.876;2023-03-22T10:19:02;101200.75;;;17.63;52.05
59493;BME280;45497;43.996;22.876;2023-03-22T10:21:02;101195.81;;;17.67;51.70
59493;BME280;45497;43.996;22.876;2023-03-22T10:23:40;101205.28;;;17.56;51.90
59493;BME280;45497;43.996;22.876;2023-03-22T10:26:16;101197.47;;;17.61;51.76
59493;BME280;45497;43.996;22.876;2023-03-22T10:28:43;101203.22;;;17.58;51.59
59493;BME280;45497;43.996;22.876;2023-03-22T10:31:15;101196.00;;;17.58;51.41
59493;BME280;45497;43.996;22.876;2023-03-22T10:33:51;101209.22;;;17.67;51.26
59493;BME280;45497;43.996;22.876;2023-03-22T10:36:22;101197.88;;;17.65;50.74
59493;BME280;45497;43.996;22.876;2023-03-22T10:38:53;101203.00;;;17.66;50.44
59493;BME280;45497;43.996;22.876;2023-03-22T10:41:22;101206.31;;;17.62;50.21
59493;BME280;45497;43.996;22.876;2023-03-22T10:43:54;101196.22;;;17.64;50.47
59493;BME280;45497;43.996;22.876;2023-03-22T10:46:24;101199.75;;;17.77;50.35
59493;BME280;45497;43.996;22.876;2023-03-22T10:48:55;101208.19;;;17.74;50.60
59493;BME280;45497;43.996;22.876;2023-03-22T10:54:14;101207.16;;;17.69;50.99
59493;BME280;45497;43.996;22.876;2023-03-22T10:56:40;101205.50;;;17.74;50.55
59493;BME280;45497;43.996;22.876;2023-03-22T10:59:06;101201.78;;;17.69;50.42
59493;BME280;45497;43.996;22.876;2023-03-22T11:01:34;101191.47;;;17.66;50.60
59493;BME280;45497;43.996;22.876;2023-03-22T11:04:08;101187.34;;;17.76;50.39
59493;BME280;45497;43.996;22.876;2023-03-22T11:06:47;101187.16;;;17.91;50.43
59493;BME280;45497;43.996;22.876;2023-03-22T11:09:19;101185.75;;;17.95;50.27
59493;BME280;45497;43.996;22.876;2023-03-22T11:11:55;101183.47;;;17.99;50.26
59493;BME280;45497;43.996;22.876;2023-03-22T11:14:23;101175.00;;;17.89;50.24
59493;BME280;45497;43.996;22.876;2023-03-22T11:16:55;101169.44;;;17.90;50.02
59493;BME280;45497;43.996;22.876;2023-03-22T11:19:33;101168.22;;;17.86;49.99
59493;BME280;45497;43.996;22.876;2023-03-22T11:21:59;101160.53;;;17.83;49.70
59493;BME280;45497;43.996;22.876;2023-03-22T11:24:29;101165.09;;;17.83;49.73
59493;BME280;45497;43.996;22.876;2023-03-22T11:27:48;101153.97;;;17.86;49.58
59493;BME280;45497;43.996;22.876;2023-03-22T11:29:57;101154.38;;;17.96;49.12
59493;BME280;45497;43.996;22.876;2023-03-22T11:37:40;101145.09;;;17.85;48.89
59493;BME280;45497;43.996;22.876;2023-03-22T11:40:13;101138.88;;;17.91;48.90
59493;BME280;45497;43.996;22.876;2023-03-22T11:42:39;101129.81;;;17.99;48.77
59493;BME280;45497;43.996;22.876;2023-03-22T11:45:06;101139.50;;;17.73;48.60
59493;BME280;45497;43.996;22.876;2023-03-22T11:47:36;101123.81;;;17.77;48.86
59493;BME280;45497;43.996;22.876;2023-03-22T11:50:05;101122.38;;;17.94;48.69
59493;BME280;45497;43.996;22.876;2023-03-22T11:52:32;101127.75;;;18.08;48.49
59493;BME280;45497;43.996;22.876;2023-03-22T11:54:58;101120.47;;;18.28;48.19
59493;BME280;45497;43.996;22.876;2023-03-22T11:57:28;101125.22;;;18.33;48.00
59493;BME280;45497;43.996;22.876;2023-03-22T11:59:58;101118.84;;;18.21;47.92
59493;BME280;45497;43.996;22.876;2023-03-22T12:04:58;101112.41;;;18.28;48.02
59493;BME280;45497;43.996;22.876;2023-03-22T12:07:27;101116.38;;;18.19;48.07
59493;BME280;45497;43.996;22.876;2023-03-22T12:10:13;101115.91;;;18.29;48.06
59493;BME280;45497;43.996;22.876;2023-03-22T12:12:58;101119.19;;;18.38;48.13
59493;BME280;45497;43.996;22.876;2023-03-22T12:15:30;101112.81;;;18.39;47.88
59493;BME280;45497;43.996;22.876;2023-03-22T12:18:03;101112.00;;;18.31;47.84
59493;BME280;45497;43.996;22.876;2023-03-22T12:20:48;101121.94;;;18.24;47.88
59493;BME280;45497;43.996;22.876;2023-03-22T12:23:20;101116.09;;;18.34;47.34
59493;BME280;45497;43.996;22.876;2023-03-22T12:28:18;101100.13;;;18.52;47.49
59493;BME280;45497;43.996;22.876;2023-03-22T12:30:47;101096.59;;;18.59;46.65
59493;BME280;45497;43.996;22.876;2023-03-22T12:33:25;101098.03;;;18.54;46.81
59493;BME280;45497;43.996;22.876;2023-03-22T12:35:56;101091.13;;;18.40;46.42
59493;BME280;45497;43.996;22.876;2023-03-22T12:41:32;101088.06;;;18.23;46.68
59493;BME280;45497;43.996;22.876;2023-03-22T12:44:02;101093.84;;;18.20;46.71
59493;BME280;45497;43.996;22.876;2023-03-22T12:46:48;101081.41;;;18.32;46.62
59493;BME280;45497;43.996;22.876;2023-03-22T12:49:19;101078.03;;;18.50;46.48
59493;BME280;45497;43.996;22.876;2023-03-22T12:51:48;101072.38;;;18.65;47.25
59493;BME280;45497;43.996;22.876;2023-03-22T12:54:17;101068.47;;;18.68;46.36
59493;BME280;45497;43.996;22.876;2023-03-22T12:56:45;101073.94;;;18.48;46.20
59493;BME280;45497;43.996;22.876;2023-03-22T12:59:15;101068.81;;;18.40;46.15
59493;BME280;45497;43.996;22.876;2023-03-22T13:02:00;101072.94;;;18.36;46.12
59493;BME280;45497;43.996;22.876;2023-03-22T13:09:49;101072.47;;;18.52;46.50
59493;BME280;45497;43.996;22.876;2023-03-22T13:27:52;101080.22;;;18.28;45.96
59493;BME280;45497;43.996;22.876;2023-03-22T13:41:00;101077.72;;;18.27;46.83
59493;BME280;45497;43.996;22.876;2023-03-22T13:56:58;101064.41;;;18.00;46.48
59493;BME280;45497;43.996;22.876;2023-03-22T13:59:57;101059.66;;;17.82;47.03
59493;BME280;45497;43.996;22.876;2023-03-22T14:02:28;101070.81;;;17.92;46.92
59493;BME280;45497;43.996;22.876;2023-03-22T14:05:22;101071.03;;;17.91;46.59
59493;BME280;45497;43.996;22.876;2023-03-22T14:07:55;101072.44;;;18.00;46.41
59493;BME280;45497;43.996;22.876;2023-03-22T14:10:39;101068.13;;;17.92;46.57
59493;BME280;45497;43.996;22.876;2023-03-22T14:15:51;101076.34;;;17.84;46.84
59493;BME280;45497;43.996;22.876;2023-03-22T14:18:31;101085.69;;;17.88;46.63
59493;BME280;45497;43.996;22.876;2023-03-22T14:20:59;101085.66;;;17.75;46.64
59493;BME280;45497;43.996;22.876;2023-03-22T14:23:29;101082.78;;;17.76;46.70
59493;BME280;45497;43.996;22.876;2023-03-22T14:26:13;101088.38;;;17.62;46.87
59493;BME280;45497;43.996;22.876;2023-03-22T14:28:39;101083.63;;;17.57;46.84
59493;BME280;45497;43.996;22.876;2023-03-22T14:31:12;101081.38;;;17.54;46.88
59493;BME280;45497;43.996;22.876;2023-03-22T14:33:40;101073.09;;;17.62;46.75
59493;BME280;45497;43.996;22.876;2023-03-22T14:36:11;101093.09;;;17.66;46.74
59493;BME280;45497;43.996;22.876;2023-03-22T14:38:43;101081.97;;;17.56;46.83
59493;BME280;45497;43.996;22.876;2023-03-22T14:41:13;101086.94;;;17.52;47.01
59493;BME280;45497;43.996;22.876;2023-03-22T14:43:41;101095.38;;;17.56;47.13
59493;BME280;45497;43.996;22.876;2023-03-22T14:48:39;101091.03;;;17.55;46.83